Terminal Aerodrome Forecast
Issued by NWS

Home | Current Version | Previous Version | Text Only | Print | Product List | Glossary On
Versions: 1 2 3 4 5 6 7 8 9 10 11 12 13 14 15
000
FTUS41 KCLE 030329 AAA
TAFFDY
TAF AMD
KFDY 030329Z 0303/0324 20012G20KT P6SM BKN100
     FM030700 23012KT 5SM SHRA OVC050
      TEMPO 0307/0309 3SM TSRA OVC025CB
     FM030900 24010KT P6SM BKN050
     FM031400 27010KT P6SM BKN035
      TEMPO 0314/0317 BKN025
     FM031700 27010KT P6SM SCT050=

USA.gov is the U.S. government's official web portal to all federal, state and local government web resources and services.